createdAt,value
2022-12-28T00:00:03.481Z,-0.05
2022-12-28T00:02:40.666Z,0.28
2022-12-28T00:05:10.005Z,0.13
2022-12-28T00:07:38.337Z,0.23
2022-12-28T00:10:08.063Z,0.17
2022-12-28T00:12:37.831Z,0.25
2022-12-28T00:15:07.095Z,0.37
2022-12-28T00:17:35.526Z,0.44
2022-12-28T00:20:03.852Z,0.57
2022-12-28T00:22:32.166Z,0.40
2022-12-28T00:25:00.489Z,0.95
2022-12-28T00:27:28.783Z,0.56
2022-12-28T00:29:58.600Z,0.45
2022-12-28T00:32:28.020Z,0.23
2022-12-28T00:34:56.326Z,0.19
2022-12-28T00:37:24.639Z,0.65
2022-12-28T00:39:52.956Z,0.79
2022-12-28T00:42:21.254Z,0.29
2022-12-28T00:44:49.651Z,0.29
2022-12-28T00:47:19.419Z,0.23
2022-12-28T00:49:48.653Z,0.29
2022-12-28T00:52:16.997Z,0.28
2022-12-28T00:54:45.421Z,0.56
2022-12-28T00:57:13.864Z,0.13
2022-12-28T00:59:42.194Z,0.06
2022-12-28T01:02:10.704Z,0.04
2022-12-28T01:04:40.592Z,0.18
2022-12-28T01:07:08.986Z,0.94
2022-12-28T01:09:37.296Z,0.26
2022-12-28T01:12:06.143Z,0.36
2022-12-28T01:14:34.951Z,0.37
2022-12-28T01:17:03.305Z,0.71
2022-12-28T01:19:32.586Z,1.68
2022-12-28T01:22:02.213Z,2.02
2022-12-28T01:24:30.658Z,2.20
2022-12-28T01:27:01.730Z,2.49
2022-12-28T01:29:30.160Z,2.51
2022-12-28T01:31:58.757Z,2.79
2022-12-28T01:34:31.019Z,2.91
2022-12-28T01:36:59.342Z,2.77
2022-12-28T01:39:30.514Z,2.50
2022-12-28T01:41:58.906Z,2.92
2022-12-28T01:44:50.610Z,2.56
2022-12-28T01:47:23.201Z,2.91
2022-12-28T01:50:06.677Z,2.59
2022-12-28T01:52:39.574Z,2.52
2022-12-28T01:55:13.536Z,2.45
2022-12-28T01:57:48.140Z,2.82
2022-12-28T02:00:18.277Z,2.40
2022-12-28T02:02:53.411Z,2.82
2022-12-28T02:05:25.696Z,3.02
2022-12-28T02:07:56.621Z,3.03
2022-12-28T02:10:42.902Z,2.82
2022-12-28T02:13:15.204Z,3.27
2022-12-28T02:15:48.425Z,2.96
2022-12-28T02:18:19.119Z,3.37
2022-12-28T02:21:10.733Z,3.29
2022-12-28T02:23:52.665Z,3.23
2022-12-28T02:26:44.388Z,3.23
2022-12-28T02:29:36.742Z,3.26
2022-12-28T02:32:26.183Z,3.36
2022-12-28T02:35:04.038Z,3.39
2022-12-28T02:37:37.443Z,3.37
2022-12-28T02:40:12.123Z,3.26
2022-12-28T02:42:42.096Z,3.35
2022-12-28T02:45:48.548Z,3.45
2022-12-28T02:48:34.551Z,3.55
2022-12-28T02:51:15.420Z,4.10
2022-12-28T02:54:01.744Z,4.07
2022-12-28T02:56:40.184Z,3.89
2022-12-28T02:59:26.401Z,4.10
2022-12-28T03:02:18.213Z,4.27
2022-12-28T03:05:01.341Z,4.30
2022-12-28T03:07:56.499Z,4.40
2022-12-28T03:10:29.959Z,3.99
2022-12-28T03:13:04.549Z,4.02
2022-12-28T03:15:38.802Z,4.10
2022-12-28T03:18:31.890Z,4.22
2022-12-28T03:21:22.256Z,4.11
2022-12-28T03:24:11.511Z,4.11
2022-12-28T03:27:04.852Z,4.15
2022-12-28T03:29:59.503Z,4.17
2022-12-28T03:32:31.412Z,4.24
2022-12-28T03:35:01.209Z,4.45
2022-12-28T03:37:35.201Z,4.00
2022-12-28T03:40:13.493Z,4.27
2022-12-28T03:43:04.061Z,4.34
2022-12-28T03:45:44.884Z,4.26
2022-12-28T03:48:17.200Z,4.25
2022-12-28T03:50:50.930Z,4.23
2022-12-28T03:53:26.017Z,4.39
2022-12-28T03:56:07.971Z,4.19
2022-12-28T03:58:36.997Z,4.26
2022-12-28T04:01:08.017Z,4.22
2022-12-28T04:03:37.972Z,4.25
2022-12-28T04:06:08.469Z,4.55
2022-12-28T04:08:36.986Z,4.50
2022-12-28T04:11:07.007Z,4.57
2022-12-28T04:13:35.538Z,4.64
2022-12-28T04:16:15.045Z,4.62
2022-12-28T04:18:44.876Z,4.47
2022-12-28T04:21:16.092Z,4.53
2022-12-28T04:23:46.346Z,4.57
2022-12-28T04:26:20.170Z,4.42
2022-12-28T04:28:50.582Z,4.38
2022-12-28T04:31:44.770Z,4.56
2022-12-28T04:34:16.340Z,4.87
2022-12-28T04:36:54.100Z,5.22
2022-12-28T04:39:24.045Z,5.25
2022-12-28T04:41:52.703Z,4.67
2022-12-28T04:44:21.101Z,4.99
2022-12-28T04:46:49.519Z,4.61
2022-12-28T04:49:17.956Z,4.60
2022-12-28T04:51:46.279Z,4.60
2022-12-28T04:54:15.997Z,4.68
2022-12-28T04:56:44.660Z,4.25
2022-12-28T04:59:12.918Z,4.73
2022-12-28T05:01:41.593Z,4.32
2022-12-28T05:04:10.252Z,4.48
2022-12-28T05:06:38.674Z,4.21
2022-12-28T05:09:07.111Z,4.31
2022-12-28T05:11:36.830Z,4.33
2022-12-28T05:14:05.153Z,4.53
2022-12-28T05:16:33.646Z,4.61
2022-12-28T05:19:02.322Z,4.45
2022-12-28T05:21:30.965Z,4.58
2022-12-28T05:23:59.512Z,4.72
2022-12-28T05:26:29.976Z,4.90
2022-12-28T05:28:59.733Z,4.80
2022-12-28T05:31:28.545Z,5.11
2022-12-28T05:33:57.581Z,4.90
2022-12-28T05:36:27.929Z,5.15
2022-12-28T05:38:57.413Z,5.15
2022-12-28T05:41:27.528Z,5.15
2022-12-28T05:43:56.875Z,5.20
2022-12-28T05:46:30.098Z,5.85
2022-12-28T05:48:59.290Z,5.63
2022-12-28T05:51:29.691Z,5.61
2022-12-28T05:54:00.061Z,5.66
2022-12-28T05:56:30.371Z,5.75
2022-12-28T05:59:00.602Z,5.41
2022-12-28T06:01:33.025Z,5.52
2022-12-28T06:04:02.917Z,5.40
2022-12-28T06:06:35.898Z,5.43
2022-12-28T06:09:05.410Z,5.53
2022-12-28T06:11:33.835Z,5.53
2022-12-28T06:14:03.710Z,5.26
2022-12-28T06:16:38.151Z,5.37
2022-12-28T06:19:07.865Z,5.45
2022-12-28T06:21:38.093Z,5.49
2022-12-28T06:24:09.857Z,5.26
2022-12-28T06:26:41.753Z,5.50
2022-12-28T06:29:10.629Z,5.32
2022-12-28T06:31:42.627Z,5.64
2022-12-28T06:34:11.674Z,5.67
2022-12-28T06:36:41.495Z,5.80
2022-12-28T06:39:11.629Z,5.87
2022-12-28T06:41:40.398Z,5.34
2022-12-28T06:44:09.666Z,5.53
2022-12-28T06:46:38.450Z,5.56
2022-12-28T06:49:10.264Z,5.55
2022-12-28T06:51:41.497Z,5.70
2022-12-28T06:54:10.898Z,5.67
2022-12-28T06:56:39.691Z,5.73
2022-12-28T06:59:08.562Z,5.65
2022-12-28T07:01:38.704Z,6.01
2022-12-28T07:04:10.985Z,5.96
2022-12-28T07:06:41.673Z,5.87
2022-12-28T07:09:14.296Z,5.69
2022-12-28T07:11:43.564Z,5.96
2022-12-28T07:14:12.601Z,6.12
2022-12-28T07:19:13.063Z,5.99
2022-12-28T07:21:41.599Z,5.63
2022-12-28T07:24:10.536Z,5.91
2022-12-28T07:26:41.136Z,5.78
2022-12-28T07:29:09.980Z,5.96
2022-12-28T07:31:45.131Z,5.58
2022-12-28T07:34:16.359Z,5.45
2022-12-28T07:36:44.894Z,5.64
2022-12-28T07:39:13.447Z,5.41
2022-12-28T07:41:41.909Z,5.65
2022-12-28T07:44:11.383Z,5.82
2022-12-28T07:46:39.766Z,5.72
2022-12-28T07:49:08.352Z,5.76
2022-12-28T07:51:40.683Z,5.94
2022-12-28T07:54:09.120Z,5.64
2022-12-28T07:59:06.579Z,5.79
2022-12-28T08:01:36.841Z,5.76
2022-12-28T08:04:07.467Z,5.75
2022-12-28T08:06:38.570Z,5.86
2022-12-28T08:09:10.292Z,6.21
2022-12-28T08:11:40.709Z,6.29
2022-12-28T08:14:09.607Z,6.21
2022-12-28T08:16:40.025Z,6.23
2022-12-28T08:19:09.875Z,6.34
2022-12-28T08:21:40.351Z,6.54
2022-12-28T08:24:14.503Z,6.41
2022-12-28T08:26:43.865Z,6.59
2022-12-28T08:29:14.307Z,6.51
2022-12-28T08:31:44.333Z,6.53
2022-12-28T08:34:14.766Z,6.45
2022-12-28T08:36:43.281Z,6.40
2022-12-28T08:39:13.931Z,6.69
2022-12-28T08:41:42.634Z,6.77
2022-12-28T08:44:13.061Z,6.63
2022-12-28T08:46:43.835Z,6.61
2022-12-28T08:49:12.959Z,6.87
2022-12-28T08:51:42.562Z,6.81
2022-12-28T08:54:13.561Z,6.56
2022-12-28T08:56:45.315Z,6.57
2022-12-28T08:59:16.181Z,6.57
2022-12-28T09:01:45.436Z,6.48
2022-12-28T09:04:16.189Z,6.48
2022-12-28T09:06:44.873Z,6.47
2022-12-28T09:09:15.419Z,6.58
2022-12-28T09:11:45.578Z,6.93
2022-12-28T09:14:22.608Z,6.64
2022-12-28T09:16:53.426Z,6.91
2022-12-28T09:19:22.004Z,6.81
2022-12-28T09:21:52.554Z,6.97
2022-12-28T09:24:21.734Z,7.07
2022-12-28T09:26:55.470Z,7.22
2022-12-28T09:29:23.834Z,7.31
2022-12-28T09:31:52.210Z,7.47
2022-12-28T09:34:35.415Z,7.21
2022-12-28T09:37:05.434Z,7.55
2022-12-28T09:39:33.857Z,7.54
2022-12-28T09:42:05.319Z,7.46
2022-12-28T09:44:58.004Z,7.74
2022-12-28T09:47:34.904Z,7.99
2022-12-28T09:50:29.857Z,8.44
2022-12-28T09:53:22.611Z,8.40
2022-12-28T09:56:01.115Z,8.30
2022-12-28T09:58:37.986Z,7.87
2022-12-28T10:01:12.429Z,8.09
2022-12-28T10:03:43.237Z,8.25
2022-12-28T10:06:13.814Z,8.23
2022-12-28T10:08:45.602Z,7.97
2022-12-28T10:11:19.657Z,8.34
2022-12-28T10:13:56.452Z,8.13
2022-12-28T10:16:27.680Z,8.07
2022-12-28T10:18:56.921Z,8.05
2022-12-28T10:21:32.553Z,8.01
2022-12-28T10:26:51.436Z,8.21
2022-12-28T10:29:22.904Z,7.94
2022-12-28T10:32:00.198Z,8.02
2022-12-28T10:34:36.739Z,8.15
2022-12-28T10:37:07.112Z,8.14
2022-12-28T10:39:50.987Z,8.20
2022-12-28T10:42:24.617Z,8.13
2022-12-28T10:44:58.780Z,8.36
2022-12-28T10:47:31.471Z,8.60
2022-12-28T10:50:35.946Z,8.42
2022-12-28T10:52:58.808Z,8.60
2022-12-28T10:55:29.987Z,8.54
2022-12-28T10:58:29.717Z,8.78
2022-12-28T11:01:02.550Z,8.60
2022-12-28T11:03:35.187Z,8.76
2022-12-28T11:06:15.099Z,8.86
2022-12-28T11:08:45.724Z,8.76
2022-12-28T11:11:22.513Z,8.85
2022-12-28T11:13:56.856Z,8.74
2022-12-28T11:16:26.833Z,8.98
2022-12-28T11:18:55.997Z,9.05
2022-12-28T11:21:24.392Z,9.14
2022-12-28T11:23:55.271Z,9.27
2022-12-28T11:26:24.104Z,9.35
2022-12-28T11:28:53.785Z,9.50
2022-12-28T11:31:31.941Z,9.61
2022-12-28T11:34:03.470Z,9.49
2022-12-28T11:36:33.258Z,9.67
2022-12-28T11:39:33.020Z,10.26
2022-12-28T11:42:37.056Z,10.89
2022-12-28T11:44:53.061Z,11.10
2022-12-28T11:47:33.925Z,10.95
2022-12-28T11:50:41.306Z,11.63
2022-12-28T11:53:44.767Z,11.26
2022-12-28T11:56:14.993Z,11.42
2022-12-28T11:58:47.262Z,11.58
2022-12-28T12:01:36.576Z,12.09
2022-12-28T12:04:11.690Z,11.87
2022-12-28T12:06:58.504Z,11.82
2022-12-28T12:09:28.124Z,12.57
2022-12-28T12:12:00.205Z,12.63
2022-12-28T12:14:31.311Z,12.28
2022-12-28T12:17:03.523Z,12.01
2022-12-28T12:19:33.135Z,11.47
2022-12-28T12:22:07.786Z,11.61
2022-12-28T12:24:40.700Z,11.66
2022-12-28T12:27:14.724Z,11.57
2022-12-28T12:29:45.141Z,12.04
2022-12-28T12:32:16.531Z,12.16
2022-12-28T12:34:48.157Z,12.44
2022-12-28T12:37:24.018Z,12.45
2022-12-28T12:40:04.363Z,12.22
2022-12-28T12:42:41.087Z,11.89
2022-12-28T12:45:15.208Z,11.14
2022-12-28T12:47:57.294Z,11.34
2022-12-28T12:50:36.427Z,11.27
2022-12-28T12:53:17.887Z,11.26
2022-12-28T12:55:51.818Z,11.13
2022-12-28T12:58:25.297Z,11.14
2022-12-28T13:01:03.919Z,10.92
2022-12-28T13:03:39.290Z,10.96
2022-12-28T13:06:07.770Z,10.99
2022-12-28T13:08:38.377Z,10.71
2022-12-28T13:11:09.222Z,10.26
2022-12-28T13:13:39.381Z,10.40
2022-12-28T13:16:10.109Z,10.23
2022-12-28T13:18:46.165Z,9.97
2022-12-28T13:21:20.292Z,10.08
2022-12-28T13:23:48.690Z,9.84
2022-12-28T13:26:17.302Z,9.82
2022-12-28T13:28:51.155Z,9.90
2022-12-28T13:31:20.230Z,9.56
2022-12-28T13:33:55.312Z,9.82
2022-12-28T13:36:25.811Z,9.51
2022-12-28T13:39:04.617Z,9.51
2022-12-28T13:41:33.467Z,9.56
2022-12-28T13:44:14.485Z,9.54
2022-12-28T13:46:45.122Z,9.45
2022-12-28T13:49:13.975Z,9.50
2022-12-28T13:51:43.100Z,9.36
2022-12-28T13:54:14.209Z,9.43
2022-12-28T13:56:45.631Z,9.19
2022-12-28T13:59:17.379Z,9.32
2022-12-28T14:01:47.357Z,9.48
2022-12-28T14:07:04.958Z,8.98
2022-12-28T14:09:33.267Z,9.03
2022-12-28T14:12:03.678Z,8.92
2022-12-28T14:14:35.893Z,9.00
2022-12-28T14:17:04.298Z,9.00
2022-12-28T14:19:32.542Z,9.04
2022-12-28T14:22:00.578Z,9.05
2022-12-28T14:24:28.832Z,9.10
2022-12-28T14:26:59.113Z,8.95
2022-12-28T14:29:29.711Z,9.04
2022-12-28T14:32:00.984Z,9.39
2022-12-28T14:34:30.663Z,9.08
2022-12-28T14:37:01.090Z,8.90
2022-12-28T14:39:34.516Z,8.92
2022-12-28T14:42:03.697Z,9.47
2022-12-28T14:44:33.463Z,8.92
2022-12-28T14:47:03.242Z,8.82
2022-12-28T14:49:36.020Z,9.08
2022-12-28T14:52:22.833Z,8.90
2022-12-28T14:54:51.682Z,8.85
2022-12-28T14:57:21.724Z,8.85
2022-12-28T14:59:51.895Z,8.76
2022-12-28T15:02:38.983Z,8.64
2022-12-28T15:05:34.774Z,8.78
2022-12-28T15:08:03.087Z,8.56
2022-12-28T15:10:31.946Z,8.56
2022-12-28T15:13:00.003Z,8.53
2022-12-28T15:15:28.148Z,8.45
2022-12-28T15:17:57.827Z,8.37
2022-12-28T15:20:28.160Z,8.58
2022-12-28T15:22:56.288Z,8.48
2022-12-28T15:25:24.570Z,8.32
2022-12-28T15:27:54.678Z,8.06
2022-12-28T15:30:28.742Z,8.06
2022-12-28T15:32:58.764Z,7.93
2022-12-28T15:35:27.196Z,8.03
2022-12-28T15:37:55.335Z,7.86
2022-12-28T15:40:23.481Z,7.98
2022-12-28T15:42:51.585Z,8.39
2022-12-28T15:45:19.909Z,8.34
2022-12-28T15:47:48.013Z,8.08
2022-12-28T15:50:17.524Z,8.30
2022-12-28T15:52:45.645Z,8.30
2022-12-28T15:55:13.788Z,8.30
2022-12-28T15:57:41.945Z,8.10
2022-12-28T16:00:11.874Z,8.19
2022-12-28T16:02:40.083Z,8.21
2022-12-28T16:05:08.643Z,8.46
2022-12-28T16:07:38.439Z,8.16
2022-12-28T16:10:07.112Z,8.24
2022-12-28T16:12:35.350Z,8.27
2022-12-28T16:15:03.459Z,8.35
2022-12-28T16:17:31.608Z,8.23
2022-12-28T16:19:59.628Z,8.34
2022-12-28T16:22:27.871Z,8.31
2022-12-28T16:24:57.757Z,8.30
2022-12-28T16:27:25.919Z,8.48
2022-12-28T16:29:58.598Z,8.38
2022-12-28T16:32:27.985Z,8.47
2022-12-28T16:34:56.076Z,8.30
2022-12-28T16:37:24.201Z,8.28
2022-12-28T16:39:52.305Z,8.38
2022-12-28T16:42:21.729Z,8.23
2022-12-28T16:44:50.882Z,7.92
2022-12-28T16:47:18.856Z,7.96
2022-12-28T16:49:46.921Z,7.99
2022-12-28T16:52:15.006Z,8.18
2022-12-28T16:54:45.350Z,8.40
2022-12-28T16:57:13.725Z,8.36
2022-12-28T16:59:43.125Z,8.39
2022-12-28T17:02:13.645Z,8.08
2022-12-28T17:04:41.869Z,7.90
2022-12-28T17:07:09.896Z,7.89
2022-12-28T17:09:37.974Z,8.23
2022-12-28T17:12:06.499Z,8.10
2022-12-28T17:14:38.220Z,8.17
2022-12-28T17:17:08.183Z,7.84
2022-12-28T17:19:36.348Z,8.04
2022-12-28T17:22:05.125Z,7.81
2022-12-28T17:24:33.213Z,7.83
2022-12-28T17:27:07.493Z,7.79
2022-12-28T17:29:37.351Z,7.97
2022-12-28T17:32:05.858Z,7.88
2022-12-28T17:34:35.464Z,8.16
2022-12-28T17:37:03.559Z,8.00
2022-12-28T17:39:37.652Z,8.20
2022-12-28T17:42:10.155Z,8.33
2022-12-28T17:44:38.263Z,8.56
2022-12-28T17:47:06.317Z,8.34
2022-12-28T17:49:35.714Z,7.74
2022-12-28T17:52:03.946Z,8.17
2022-12-28T17:54:34.170Z,8.27
2022-12-28T17:57:02.283Z,8.03
2022-12-28T17:59:30.483Z,8.10
2022-12-28T18:02:01.504Z,8.32
2022-12-28T18:04:29.808Z,8.13
2022-12-28T18:06:59.187Z,7.91
2022-12-28T18:09:28.157Z,7.85
2022-12-28T18:11:56.826Z,8.10
2022-12-28T18:14:25.050Z,8.39
2022-12-28T18:16:53.184Z,8.26
2022-12-28T18:19:21.419Z,8.37
2022-12-28T18:21:49.864Z,8.30
2022-12-28T18:24:20.925Z,8.30
2022-12-28T18:26:51.916Z,8.11
2022-12-28T18:29:19.942Z,8.52
2022-12-28T18:31:47.981Z,8.32
2022-12-28T18:34:16.183Z,8.43
2022-12-28T18:36:44.245Z,8.21
2022-12-28T18:39:12.460Z,8.28
2022-12-28T18:41:41.903Z,8.09
2022-12-28T18:44:10.326Z,8.04
2022-12-28T18:46:40.763Z,8.04
2022-12-28T18:49:08.947Z,7.94
2022-12-28T18:51:37.088Z,8.60
2022-12-28T18:54:05.551Z,8.12
2022-12-28T18:56:33.799Z,8.38
2022-12-28T18:59:03.178Z,8.50
2022-12-28T19:04:19.928Z,8.47
2022-12-28T19:06:48.222Z,8.54
2022-12-28T19:09:16.421Z,8.16
2022-12-28T19:11:45.207Z,8.09
2022-12-28T19:14:16.090Z,8.04
2022-12-28T19:16:45.325Z,7.99
2022-12-28T19:19:13.602Z,7.94
2022-12-28T19:21:42.117Z,7.90
2022-12-28T19:24:12.443Z,7.84
2022-12-28T19:26:41.139Z,7.94
2022-12-28T19:29:09.587Z,8.31
2022-12-28T19:31:39.198Z,8.25
2022-12-28T19:34:07.425Z,7.78
2022-12-28T19:36:35.555Z,7.84
2022-12-28T19:39:03.541Z,8.05
2022-12-28T19:41:31.619Z,7.81
2022-12-28T19:43:59.895Z,8.03
2022-12-28T19:46:32.121Z,8.19
2022-12-28T19:49:02.565Z,7.98
2022-12-28T19:51:32.316Z,8.22
2022-12-28T19:54:01.179Z,7.71
2022-12-28T19:56:29.302Z,7.55
2022-12-28T19:59:04.966Z,7.36
2022-12-28T20:01:34.681Z,7.47
2022-12-28T20:04:10.409Z,7.49
2022-12-28T20:06:41.911Z,7.52
2022-12-28T20:09:10.141Z,7.73
2022-12-28T20:11:38.397Z,7.51
2022-12-28T20:14:07.131Z,7.76
2022-12-28T20:16:35.936Z,7.53
2022-12-28T20:19:08.559Z,7.80
2022-12-28T20:21:37.145Z,7.83
2022-12-28T20:24:07.599Z,7.87
2022-12-28T20:26:36.214Z,7.33
2022-12-28T20:29:04.909Z,7.32
2022-12-28T20:31:33.066Z,7.42
2022-12-28T20:34:01.760Z,7.39
2022-12-28T20:36:34.065Z,7.36
2022-12-28T20:39:02.522Z,7.32
2022-12-28T20:41:49.497Z,7.32
2022-12-28T20:44:18.329Z,7.43
2022-12-28T20:46:46.970Z,7.34
2022-12-28T20:49:15.138Z,7.26
2022-12-28T20:51:46.762Z,7.35
2022-12-28T20:54:15.164Z,7.21
2022-12-28T20:56:43.847Z,7.33
2022-12-28T20:59:14.303Z,7.36
2022-12-28T21:01:42.762Z,7.46
2022-12-28T21:04:11.416Z,7.49
2022-12-28T21:06:39.573Z,7.43
2022-12-28T21:09:08.972Z,7.61
2022-12-28T21:11:37.257Z,7.58
2022-12-28T21:14:05.435Z,7.66
2022-12-28T21:16:33.605Z,7.57
2022-12-28T21:19:04.039Z,7.66
2022-12-28T21:21:32.110Z,7.78
2022-12-28T21:24:00.268Z,7.75
2022-12-28T21:26:29.897Z,7.81
2022-12-28T21:28:58.322Z,7.91
2022-12-28T21:31:26.400Z,8.09
2022-12-28T21:33:55.379Z,7.86
2022-12-28T21:36:23.625Z,8.02
2022-12-28T21:38:51.765Z,7.94
2022-12-28T21:41:41.333Z,8.05
2022-12-28T21:44:11.625Z,8.77
2022-12-28T21:46:40.201Z,8.33
2022-12-28T21:49:10.436Z,8.19
2022-12-28T21:51:40.532Z,8.08
2022-12-28T21:54:09.563Z,8.24
2022-12-28T21:56:37.969Z,8.46
2022-12-28T22:02:57.068Z,8.19
2022-12-28T22:05:43.192Z,8.49
2022-12-28T22:08:28.724Z,8.38
2022-12-28T22:11:15.103Z,8.70
2022-12-28T22:13:43.351Z,8.53
2022-12-28T22:16:11.462Z,8.57
2022-12-28T22:21:29.186Z,8.26
2022-12-28T22:23:57.253Z,8.64
2022-12-28T22:26:25.295Z,8.76
2022-12-28T22:28:53.395Z,8.92
2022-12-28T22:31:21.486Z,8.90
2022-12-28T22:33:53.317Z,8.84
2022-12-28T22:36:21.489Z,9.03
2022-12-28T22:38:49.502Z,8.96
2022-12-28T22:41:17.476Z,8.54
2022-12-28T22:43:49.542Z,8.66
2022-12-28T22:46:17.642Z,9.05
2022-12-28T22:48:46.041Z,9.20
2022-12-28T22:51:16.387Z,9.06
2022-12-28T22:53:44.413Z,9.24
2022-12-28T22:56:15.866Z,9.27
2022-12-28T22:58:43.949Z,9.13
2022-12-28T23:01:13.378Z,9.12
2022-12-28T23:03:42.786Z,8.89
2022-12-28T23:06:11.674Z,9.26
2022-12-28T23:08:41.020Z,8.92
2022-12-28T23:11:31.102Z,8.81
2022-12-28T23:14:19.838Z,9.03
2022-12-28T23:16:46.984Z,9.13
2022-12-28T23:19:32.510Z,9.10
2022-12-28T23:22:20.426Z,9.18
2022-12-28T23:25:07.637Z,9.25
2022-12-28T23:27:36.625Z,9.46
2022-12-28T23:30:04.955Z,9.47
2022-12-28T23:32:33.005Z,9.59
2022-12-28T23:35:02.137Z,9.49
2022-12-28T23:37:30.385Z,9.54
2022-12-28T23:39:59.728Z,9.39
2022-12-28T23:42:27.891Z,9.55
2022-12-28T23:44:56.002Z,9.53
2022-12-28T23:47:24.084Z,9.38
2022-12-28T23:49:52.160Z,9.72
2022-12-28T23:52:25.632Z,9.42
2022-12-28T23:54:54.153Z,9.65
2022-12-28T23:57:23.722Z,9.72
2022-12-28T23:59:51.889Z,9.47
